sensor_id;sensor_type;location;lat;lon;timestamp;temperature;humidity
24614;DHT22;12760;46.296;25.290;2022-09-09T00:00:28;18.20;99.90
24614;DHT22;12760;46.296;25.290;2022-09-09T00:03:14;18.20;99.90
24614;DHT22;12760;46.296;25.290;2022-09-09T00:05:54;18.10;99.90
24614;DHT22;12760;46.296;25.290;2022-09-09T00:08:28;18.10;99.90
24614;DHT22;12760;46.296;25.290;2022-09-09T00:10:59;18.00;99.90
24614;DHT22;12760;46.296;25.290;2022-09-09T00:13:50;17.80;99.90
24614;DHT22;12760;46.296;25.290;2022-09-09T00:16:21;17.70;99.90
24614;DHT22;12760;46.296;25.290;2022-09-09T00:18:56;17.70;99.90
24614;DHT22;12760;46.296;25.290;2022-09-09T00:21:32;17.80;99.90
24614;DHT22;12760;46.296;25.290;2022-09-09T00:23:58;17.80;99.90
24614;DHT22;12760;46.296;25.290;2022-09-09T00:31:37;17.80;99.90
24614;DHT22;12760;46.296;25.290;2022-09-09T00:34:21;17.80;99.90
24614;DHT22;12760;46.296;25.290;2022-09-09T00:36:50;17.80;99.90
24614;DHT22;12760;46.296;25.290;2022-09-09T00:39:38;17.80;99.90
24614;DHT22;12760;46.296;25.290;2022-09-09T00:44:37;17.70;99.90
24614;DHT22;12760;46.296;25.290;2022-09-09T00:47:26;17.70;99.90
24614;DHT22;12760;46.296;25.290;2022-09-09T00:58:07;17.60;99.90
24614;DHT22;12760;46.296;25.290;2022-09-09T01:00:41;17.60;99.90
24614;DHT22;12760;46.296;25.290;2022-09-09T01:05:51;17.60;99.90
24614;DHT22;12760;46.296;25.290;2022-09-09T01:10:58;17.60;99.90
24614;DHT22;12760;46.296;25.290;2022-09-09T01:13:26;17.60;99.90
24614;DHT22;12760;46.296;25.290;2022-09-09T01:15:53;17.60;99.90
24614;DHT22;12760;46.296;25.290;2022-09-09T01:18:22;17.50;99.90
24614;DHT22;12760;46.296;25.290;2022-09-09T01:24:04;17.60;99.90
24614;DHT22;12760;46.296;25.290;2022-09-09T01:26:42;17.50;99.90
24614;DHT22;12760;46.296;25.290;2022-09-09T01:29:11;17.50;99.90
24614;DHT22;12760;46.296;25.290;2022-09-09T01:31:38;17.40;99.90
24614;DHT22;12760;46.296;25.290;2022-09-09T01:34:13;17.50;99.90
24614;DHT22;12760;46.296;25.290;2022-09-09T01:37:10;17.40;99.90
24614;DHT22;12760;46.296;25.290;2022-09-09T01:39:39;17.30;99.90
24614;DHT22;12760;46.296;25.290;2022-09-09T01:42:08;17.10;99.90
24614;DHT22;12760;46.296;25.290;2022-09-09T01:44:36;17.00;99.90
24614;DHT22;12760;46.296;25.290;2022-09-09T01:47:03;17.00;99.90
24614;DHT22;12760;46.296;25.290;2022-09-09T01:49:29;17.10;99.90
24614;DHT22;12760;46.296;25.290;2022-09-09T01:51:56;17.20;99.90
24614;DHT22;12760;46.296;25.290;2022-09-09T01:54:26;17.20;99.90
24614;DHT22;12760;46.296;25.290;2022-09-09T01:59:34;17.20;99.90
24614;DHT22;12760;46.296;25.290;2022-09-09T02:04:47;17.10;99.90
24614;DHT22;12760;46.296;25.290;2022-09-09T02:12:36;17.20;99.90
24614;DHT22;12760;46.296;25.290;2022-09-09T02:15:11;17.10;99.90
24614;DHT22;12760;46.296;25.290;2022-09-09T02:17:41;17.10;99.90
24614;DHT22;12760;46.296;25.290;2022-09-09T02:20:11;17.00;99.90
24614;DHT22;12760;46.296;25.290;2022-09-09T02:22:40;17.00;99.90
24614;DHT22;12760;46.296;25.290;2022-09-09T02:25:09;17.10;99.90
24614;DHT22;12760;46.296;25.290;2022-09-09T02:27:36;17.10;99.90
24614;DHT22;12760;46.296;25.290;2022-09-09T02:30:04;17.10;99.90
24614;DHT22;12760;46.296;25.290;2022-09-09T02:32:32;17.20;99.90
24614;DHT22;12760;46.296;25.290;2022-09-09T02:35:10;17.20;99.90
24614;DHT22;12760;46.296;25.290;2022-09-09T02:37:39;17.10;99.90
24614;DHT22;12760;46.296;25.290;2022-09-09T02:40:08;17.10;99.90
24614;DHT22;12760;46.296;25.290;2022-09-09T02:42:42;17.10;99.90
24614;DHT22;12760;46.296;25.290;2022-09-09T02:45:11;17.00;99.90
24614;DHT22;12760;46.296;25.290;2022-09-09T02:50:35;17.10;99.90
24614;DHT22;12760;46.296;25.290;2022-09-09T02:53:16;17.00;99.90
24614;DHT22;12760;46.296;25.290;2022-09-09T02:56:04;17.10;99.90
24614;DHT22;12760;46.296;25.290;2022-09-09T02:58:31;17.00;99.90
24614;DHT22;12760;46.296;25.290;2022-09-09T03:00:57;17.00;99.90
24614;DHT22;12760;46.296;25.290;2022-09-09T03:03:23;17.00;99.90
24614;DHT22;12760;46.296;25.290;2022-09-09T03:05:49;17.00;99.90
24614;DHT22;12760;46.296;25.290;2022-09-09T03:08:15;17.00;99.90
24614;DHT22;12760;46.296;25.290;2022-09-09T03:10:41;16.90;99.90
24614;DHT22;12760;46.296;25.290;2022-09-09T03:13:07;16.90;99.90
24614;DHT22;12760;46.296;25.290;2022-09-09T03:15:33;17.00;99.90
24614;DHT22;12760;46.296;25.290;2022-09-09T03:17:59;17.00;99.90
24614;DHT22;12760;46.296;25.290;2022-09-09T03:20:27;17.00;99.90
24614;DHT22;12760;46.296;25.290;2022-09-09T03:22:53;17.00;99.90
24614;DHT22;12760;46.296;25.290;2022-09-09T03:25:20;16.90;99.90
24614;DHT22;12760;46.296;25.290;2022-09-09T03:27:46;16.80;99.90
24614;DHT22;12760;46.296;25.290;2022-09-09T03:30:12;16.80;99.90
24614;DHT22;12760;46.296;25.290;2022-09-09T03:32:37;16.70;99.90
24614;DHT22;12760;46.296;25.290;2022-09-09T03:35:03;16.80;99.90
24614;DHT22;12760;46.296;25.290;2022-09-09T03:37:29;16.90;99.90
24614;DHT22;12760;46.296;25.290;2022-09-09T03:39:55;16.90;99.90
24614;DHT22;12760;46.296;25.290;2022-09-09T03:42:21;16.90;99.90
24614;DHT22;12760;46.296;25.290;2022-09-09T03:44:47;16.90;99.90
24614;DHT22;12760;46.296;25.290;2022-09-09T03:47:19;16.80;99.90
24614;DHT22;12760;46.296;25.290;2022-09-09T03:49:47;16.80;99.90
24614;DHT22;12760;46.296;25.290;2022-09-09T03:52:14;16.90;99.90
24614;DHT22;12760;46.296;25.290;2022-09-09T03:54:40;16.90;99.90
24614;DHT22;12760;46.296;25.290;2022-09-09T03:57:10;16.90;99.90
24614;DHT22;12760;46.296;25.290;2022-09-09T03:59:36;16.90;99.90
24614;DHT22;12760;46.296;25.290;2022-09-09T04:02:03;16.90;99.90
24614;DHT22;12760;46.296;25.290;2022-09-09T04:04:29;17.00;99.90
24614;DHT22;12760;46.296;25.290;2022-09-09T04:06:54;17.00;99.90
24614;DHT22;12760;46.296;25.290;2022-09-09T04:09:20;16.90;99.90
24614;DHT22;12760;46.296;25.290;2022-09-09T04:11:46;17.00;99.90
24614;DHT22;12760;46.296;25.290;2022-09-09T04:14:12;17.00;99.90
24614;DHT22;12760;46.296;25.290;2022-09-09T04:16:38;17.00;99.90
24614;DHT22;12760;46.296;25.290;2022-09-09T04:19:05;17.00;99.90
24614;DHT22;12760;46.296;25.290;2022-09-09T04:21:32;17.00;99.90
24614;DHT22;12760;46.296;25.290;2022-09-09T04:23:57;16.90;99.90
24614;DHT22;12760;46.296;25.290;2022-09-09T04:26:23;16.90;99.90
24614;DHT22;12760;46.296;25.290;2022-09-09T04:28:49;16.90;99.90
24614;DHT22;12760;46.296;25.290;2022-09-09T04:31:20;16.90;99.90
24614;DHT22;12760;46.296;25.290;2022-09-09T04:33:49;16.90;99.90
24614;DHT22;12760;46.296;25.290;2022-09-09T04:36:15;17.00;99.90
24614;DHT22;12760;46.296;25.290;2022-09-09T04:38:41;17.00;99.90
24614;DHT22;12760;46.296;25.290;2022-09-09T04:41:08;17.10;99.90
24614;DHT22;12760;46.296;25.290;2022-09-09T04:43:37;17.10;99.90
24614;DHT22;12760;46.296;25.290;2022-09-09T04:46:03;17.10;99.90
24614;DHT22;12760;46.296;25.290;2022-09-09T04:48:29;17.10;99.90
24614;DHT22;12760;46.296;25.290;2022-09-09T04:51:01;17.20;99.90
24614;DHT22;12760;46.296;25.290;2022-09-09T04:53:28;17.20;99.90
24614;DHT22;12760;46.296;25.290;2022-09-09T04:56:08;17.30;99.90
24614;DHT22;12760;46.296;25.290;2022-09-09T04:58:35;17.30;99.90
24614;DHT22;12760;46.296;25.290;2022-09-09T05:01:09;17.30;99.90
24614;DHT22;12760;46.296;25.290;2022-09-09T05:03:35;17.40;99.90
24614;DHT22;12760;46.296;25.290;2022-09-09T05:06:10;17.40;99.90
24614;DHT22;12760;46.296;25.290;2022-09-09T05:08:40;17.40;99.90
24614;DHT22;12760;46.296;25.290;2022-09-09T05:11:21;17.40;99.90
24614;DHT22;12760;46.296;25.290;2022-09-09T05:13:49;17.50;99.90
24614;DHT22;12760;46.296;25.290;2022-09-09T05:16:16;17.50;99.90
24614;DHT22;12760;46.296;25.290;2022-09-09T05:18:42;17.50;99.90
24614;DHT22;12760;46.296;25.290;2022-09-09T05:21:09;17.50;99.90
24614;DHT22;12760;46.296;25.290;2022-09-09T05:23:35;17.50;99.90
24614;DHT22;12760;46.296;25.290;2022-09-09T05:26:03;17.60;99.90
24614;DHT22;12760;46.296;25.290;2022-09-09T05:28:29;17.70;99.90
24614;DHT22;12760;46.296;25.290;2022-09-09T05:31:00;17.70;99.90
24614;DHT22;12760;46.296;25.290;2022-09-09T05:33:27;17.70;99.90
24614;DHT22;12760;46.296;25.290;2022-09-09T05:36:01;17.80;99.90
24614;DHT22;12760;46.296;25.290;2022-09-09T05:38:28;17.90;99.90
24614;DHT22;12760;46.296;25.290;2022-09-09T05:40:55;17.90;99.90
24614;DHT22;12760;46.296;25.290;2022-09-09T05:43:23;18.00;99.90
24614;DHT22;12760;46.296;25.290;2022-09-09T05:46:02;18.00;99.90
24614;DHT22;12760;46.296;25.290;2022-09-09T05:48:37;18.00;99.90
24614;DHT22;12760;46.296;25.290;2022-09-09T05:51:04;18.00;99.90
24614;DHT22;12760;46.296;25.290;2022-09-09T05:53:30;18.00;99.90
24614;DHT22;12760;46.296;25.290;2022-09-09T05:56:05;18.00;99.90
24614;DHT22;12760;46.296;25.290;2022-09-09T05:58:32;18.10;99.90
24614;DHT22;12760;46.296;25.290;2022-09-09T06:01:06;18.10;99.90
24614;DHT22;12760;46.296;25.290;2022-09-09T06:03:34;18.20;99.90
24614;DHT22;12760;46.296;25.290;2022-09-09T06:06:02;18.20;99.90
24614;DHT22;12760;46.296;25.290;2022-09-09T06:08:31;18.20;99.90
24614;DHT22;12760;46.296;25.290;2022-09-09T06:11:01;18.30;99.90
24614;DHT22;12760;46.296;25.290;2022-09-09T06:13:28;18.40;99.90
24614;DHT22;12760;46.296;25.290;2022-09-09T06:15:54;18.50;99.90
24614;DHT22;12760;46.296;25.290;2022-09-09T06:18:20;18.60;99.90
24614;DHT22;12760;46.296;25.290;2022-09-09T06:21:04;18.70;99.90
24614;DHT22;12760;46.296;25.290;2022-09-09T06:23:31;18.80;99.90
24614;DHT22;12760;46.296;25.290;2022-09-09T06:26:03;18.80;99.90
24614;DHT22;12760;46.296;25.290;2022-09-09T06:28:31;18.90;99.90
24614;DHT22;12760;46.296;25.290;2022-09-09T06:31:01;18.90;99.90
24614;DHT22;12760;46.296;25.290;2022-09-09T06:33:31;18.90;99.90
24614;DHT22;12760;46.296;25.290;2022-09-09T06:35:57;18.90;99.90
24614;DHT22;12760;46.296;25.290;2022-09-09T06:38:23;19.00;99.90
24614;DHT22;12760;46.296;25.290;2022-09-09T06:40:57;18.90;99.90
24614;DHT22;12760;46.296;25.290;2022-09-09T06:43:24;19.00;99.90
24614;DHT22;12760;46.296;25.290;2022-09-09T06:46:04;19.00;99.90
24614;DHT22;12760;46.296;25.290;2022-09-09T06:48:30;19.00;99.90
24614;DHT22;12760;46.296;25.290;2022-09-09T06:53:37;19.00;99.90
24614;DHT22;12760;46.296;25.290;2022-09-09T06:58:44;19.00;99.90
24614;DHT22;12760;46.296;25.290;2022-09-09T07:01:13;19.00;99.90
24614;DHT22;12760;46.296;25.290;2022-09-09T07:03:42;19.00;99.90
24614;DHT22;12760;46.296;25.290;2022-09-09T07:06:16;19.00;99.90
24614;DHT22;12760;46.296;25.290;2022-09-09T07:08:55;19.10;99.90
24614;DHT22;12760;46.296;25.290;2022-09-09T07:11:22;19.00;99.90
24614;DHT22;12760;46.296;25.290;2022-09-09T07:13:49;19.00;99.90
24614;DHT22;12760;46.296;25.290;2022-09-09T07:16:19;19.00;99.90
24614;DHT22;12760;46.296;25.290;2022-09-09T07:18:45;19.10;99.90
24614;DHT22;12760;46.296;25.290;2022-09-09T07:21:13;19.20;99.90
24614;DHT22;12760;46.296;25.290;2022-09-09T07:23:40;19.30;99.90
24614;DHT22;12760;46.296;25.290;2022-09-09T07:26:17;19.30;99.90
24614;DHT22;12760;46.296;25.290;2022-09-09T07:28:45;19.40;99.90
24614;DHT22;12760;46.296;25.290;2022-09-09T07:31:19;19.50;99.90
24614;DHT22;12760;46.296;25.290;2022-09-09T07:33:46;19.50;99.90
24614;DHT22;12760;46.296;25.290;2022-09-09T07:36:14;19.60;99.90
24614;DHT22;12760;46.296;25.290;2022-09-09T07:38:40;19.60;99.90
24614;DHT22;12760;46.296;25.290;2022-09-09T07:41:08;19.70;99.90
24614;DHT22;12760;46.296;25.290;2022-09-09T07:43:45;19.80;99.90
24614;DHT22;12760;46.296;25.290;2022-09-09T07:46:13;19.80;99.90
24614;DHT22;12760;46.296;25.290;2022-09-09T07:48:43;19.90;99.90
24614;DHT22;12760;46.296;25.290;2022-09-09T07:51:12;19.90;99.90
24614;DHT22;12760;46.296;25.290;2022-09-09T07:53:38;20.00;99.90
24614;DHT22;12760;46.296;25.290;2022-09-09T07:56:08;20.00;99.90
24614;DHT22;12760;46.296;25.290;2022-09-09T07:58:38;20.10;99.90
24614;DHT22;12760;46.296;25.290;2022-09-09T08:01:33;20.20;99.90
24614;DHT22;12760;46.296;25.290;2022-09-09T08:03:59;20.40;99.90
24614;DHT22;12760;46.296;25.290;2022-09-09T08:06:27;20.50;99.90
24614;DHT22;12760;46.296;25.290;2022-09-09T08:08:54;20.50;99.90
24614;DHT22;12760;46.296;25.290;2022-09-09T08:11:21;20.60;99.90
24614;DHT22;12760;46.296;25.290;2022-09-09T08:13:50;20.60;99.90
24614;DHT22;12760;46.296;25.290;2022-09-09T08:16:24;20.70;99.90
24614;DHT22;12760;46.296;25.290;2022-09-09T08:18:51;20.80;99.90
24614;DHT22;12760;46.296;25.290;2022-09-09T08:21:26;20.90;99.90
24614;DHT22;12760;46.296;25.290;2022-09-09T08:23:57;21.00;99.90
24614;DHT22;12760;46.296;25.290;2022-09-09T08:26:25;21.10;99.90
24614;DHT22;12760;46.296;25.290;2022-09-09T08:28:53;21.20;99.90
24614;DHT22;12760;46.296;25.290;2022-09-09T08:31:28;21.30;99.90
24614;DHT22;12760;46.296;25.290;2022-09-09T08:33:55;21.50;99.90
24614;DHT22;12760;46.296;25.290;2022-09-09T08:36:23;21.40;99.90
24614;DHT22;12760;46.296;25.290;2022-09-09T08:38:52;21.40;99.90
24614;DHT22;12760;46.296;25.290;2022-09-09T08:52:40;21.70;99.90
24614;DHT22;12760;46.296;25.290;2022-09-09T08:58:08;21.70;99.90
24614;DHT22;12760;46.296;25.290;2022-09-09T09:00:48;21.60;99.90
24614;DHT22;12760;46.296;25.290;2022-09-09T09:14:36;21.20;99.90
24614;DHT22;12760;46.296;25.290;2022-09-09T09:17:11;21.10;99.90
24614;DHT22;12760;46.296;25.290;2022-09-09T09:19:40;21.00;99.90
24614;DHT22;12760;46.296;25.290;2022-09-09T09:22:21;20.90;99.90
24614;DHT22;12760;46.296;25.290;2022-09-09T09:24:58;20.90;99.90
24614;DHT22;12760;46.296;25.290;2022-09-09T09:27:34;20.90;99.90
24614;DHT22;12760;46.296;25.290;2022-09-09T09:30:36;20.90;99.90
24614;DHT22;12760;46.296;25.290;2022-09-09T09:35:51;20.90;99.90
24614;DHT22;12760;46.296;25.290;2022-09-09T09:38:22;21.00;99.90
24614;DHT22;12760;46.296;25.290;2022-09-09T09:40:49;21.00;99.90
24614;DHT22;12760;46.296;25.290;2022-09-09T09:43:21;21.10;99.90
24614;DHT22;12760;46.296;25.290;2022-09-09T09:45:49;21.10;99.90
24614;DHT22;12760;46.296;25.290;2022-09-09T09:48:14;21.10;99.90
24614;DHT22;12760;46.296;25.290;2022-09-09T09:50:51;21.10;99.90
24614;DHT22;12760;46.296;25.290;2022-09-09T09:53:32;21.20;99.90
24614;DHT22;12760;46.296;25.290;2022-09-09T09:56:02;21.20;99.90
24614;DHT22;12760;46.296;25.290;2022-09-09T09:58:52;21.30;99.90
24614;DHT22;12760;46.296;25.290;2022-09-09T10:01:31;21.30;99.90
24614;DHT22;12760;46.296;25.290;2022-09-09T10:06:39;21.40;99.90
24614;DHT22;12760;46.296;25.290;2022-09-09T10:09:38;21.40;99.90
24614;DHT22;12760;46.296;25.290;2022-09-09T10:20:37;21.60;99.90
24614;DHT22;12760;46.296;25.290;2022-09-09T10:26:35;21.70;99.90
24614;DHT22;12760;46.296;25.290;2022-09-09T10:32:22;21.90;99.90
24614;DHT22;12760;46.296;25.290;2022-09-09T10:41:11;22.20;99.90
24614;DHT22;12760;46.296;25.290;2022-09-09T10:49:13;22.30;99.90
24614;DHT22;12760;46.296;25.290;2022-09-09T10:51:45;22.30;99.90
24614;DHT22;12760;46.296;25.290;2022-09-09T10:56:44;22.30;99.90
24614;DHT22;12760;46.296;25.290;2022-09-09T10:59:26;22.30;99.90
24614;DHT22;12760;46.296;25.290;2022-09-09T11:02:31;22.30;99.90
24614;DHT22;12760;46.296;25.290;2022-09-09T11:05:21;22.30;99.90
24614;DHT22;12760;46.296;25.290;2022-09-09T11:07:59;22.20;99.90
24614;DHT22;12760;46.296;25.290;2022-09-09T11:13:39;22.10;99.90
24614;DHT22;12760;46.296;25.290;2022-09-09T11:16:30;22.00;99.90
24614;DHT22;12760;46.296;25.290;2022-09-09T11:19:24;21.90;99.90
24614;DHT22;12760;46.296;25.290;2022-09-09T11:21:53;21.80;99.90
24614;DHT22;12760;46.296;25.290;2022-09-09T11:27:01;21.70;99.90
24614;DHT22;12760;46.296;25.290;2022-09-09T11:32:39;21.40;99.90
24614;DHT22;12760;46.296;25.290;2022-09-09T11:35:29;21.40;99.90
24614;DHT22;12760;46.296;25.290;2022-09-09T11:40:36;21.10;99.90
24614;DHT22;12760;46.296;25.290;2022-09-09T11:45:36;21.00;99.90
24614;DHT22;12760;46.296;25.290;2022-09-09T11:48:03;21.10;99.90
24614;DHT22;12760;46.296;25.290;2022-09-09T11:50:32;21.10;99.90
24614;DHT22;12760;46.296;25.290;2022-09-09T11:55:39;21.10;99.90
24614;DHT22;12760;46.296;25.290;2022-09-09T12:00:42;21.30;99.90
24614;DHT22;12760;46.296;25.290;2022-09-09T12:03:33;21.20;99.90
24614;DHT22;12760;46.296;25.290;2022-09-09T12:06:27;21.30;99.90
24614;DHT22;12760;46.296;25.290;2022-09-09T12:09:22;21.30;99.90
24614;DHT22;12760;46.296;25.290;2022-09-09T12:11:51;21.30;99.90
24614;DHT22;12760;46.296;25.290;2022-09-09T12:14:22;21.20;99.90
24614;DHT22;12760;46.296;25.290;2022-09-09T12:16:49;21.10;99.90
24614;DHT22;12760;46.296;25.290;2022-09-09T12:19:19;21.10;99.90
24614;DHT22;12760;46.296;25.290;2022-09-09T12:24:52;21.10;99.90
24614;DHT22;12760;46.296;25.290;2022-09-09T12:27:24;21.00;99.90
24614;DHT22;12760;46.296;25.290;2022-09-09T12:32:27;21.00;99.90
24614;DHT22;12760;46.296;25.290;2022-09-09T12:35:04;21.00;99.90
24614;DHT22;12760;46.296;25.290;2022-09-09T12:37:35;21.00;99.90
24614;DHT22;12760;46.296;25.290;2022-09-09T12:40:23;20.90;99.90
24614;DHT22;12760;46.296;25.290;2022-09-09T12:42:49;20.90;99.90
24614;DHT22;12760;46.296;25.290;2022-09-09T12:47:59;20.90;99.90
24614;DHT22;12760;46.296;25.290;2022-09-09T12:50:33;21.00;99.90
24614;DHT22;12760;46.296;25.290;2022-09-09T12:53:29;21.00;99.90
24614;DHT22;12760;46.296;25.290;2022-09-09T12:56:04;21.10;99.90
24614;DHT22;12760;46.296;25.290;2022-09-09T12:58:31;21.10;99.90
24614;DHT22;12760;46.296;25.290;2022-09-09T13:01:01;21.10;99.90
24614;DHT22;12760;46.296;25.290;2022-09-09T13:03:32;21.20;99.90
24614;DHT22;12760;46.296;25.290;2022-09-09T13:06:13;21.20;99.90
24614;DHT22;12760;46.296;25.290;2022-09-09T13:08:39;21.20;99.90
24614;DHT22;12760;46.296;25.290;2022-09-09T13:11:41;21.20;99.90
24614;DHT22;12760;46.296;25.290;2022-09-09T13:14:16;21.20;99.90
24614;DHT22;12760;46.296;25.290;2022-09-09T13:16:58;21.30;99.90
24614;DHT22;12760;46.296;25.290;2022-09-09T13:19:24;21.20;99.90
24614;DHT22;12760;46.296;25.290;2022-09-09T13:21:54;21.30;99.90
24614;DHT22;12760;46.296;25.290;2022-09-09T13:24:32;21.20;99.90
24614;DHT22;12760;46.296;25.290;2022-09-09T13:27:22;21.20;99.90
24614;DHT22;12760;46.296;25.290;2022-09-09T13:29:53;21.20;99.90
24614;DHT22;12760;46.296;25.290;2022-09-09T13:32:24;21.20;99.90
24614;DHT22;12760;46.296;25.290;2022-09-09T13:35:02;21.20;99.90
24614;DHT22;12760;46.296;25.290;2022-09-09T13:37:38;21.20;99.90
24614;DHT22;12760;46.296;25.290;2022-09-09T13:40:18;21.20;99.90
24614;DHT22;12760;46.296;25.290;2022-09-09T13:42:44;21.20;99.90
24614;DHT22;12760;46.296;25.290;2022-09-09T13:45:22;21.20;99.90
24614;DHT22;12760;46.296;25.290;2022-09-09T13:47:50;21.10;99.90
24614;DHT22;12760;46.296;25.290;2022-09-09T13:50:21;21.20;99.90
24614;DHT22;12760;46.296;25.290;2022-09-09T13:52:52;21.20;99.90
24614;DHT22;12760;46.296;25.290;2022-09-09T13:55:22;21.10;99.90
24614;DHT22;12760;46.296;25.290;2022-09-09T13:58:03;21.10;99.90
24614;DHT22;12760;46.296;25.290;2022-09-09T14:00:32;21.20;99.90
24614;DHT22;12760;46.296;25.290;2022-09-09T14:02:58;21.20;99.90
24614;DHT22;12760;46.296;25.290;2022-09-09T14:05:27;21.10;99.90
24614;DHT22;12760;46.296;25.290;2022-09-09T14:07:53;21.10;99.90
24614;DHT22;12760;46.296;25.290;2022-09-09T14:10:19;21.10;99.90
24614;DHT22;12760;46.296;25.290;2022-09-09T14:12:45;21.10;99.90
24614;DHT22;12760;46.296;25.290;2022-09-09T14:15:12;21.10;99.90
24614;DHT22;12760;46.296;25.290;2022-09-09T14:17:38;21.10;99.90
24614;DHT22;12760;46.296;25.290;2022-09-09T14:20:05;21.20;99.90
24614;DHT22;12760;46.296;25.290;2022-09-09T14:22:36;21.20;99.90
24614;DHT22;12760;46.296;25.290;2022-09-09T14:25:03;21.20;99.90
24614;DHT22;12760;46.296;25.290;2022-09-09T14:27:29;21.30;99.90
24614;DHT22;12760;46.296;25.290;2022-09-09T14:29:55;21.30;99.90
24614;DHT22;12760;46.296;25.290;2022-09-09T14:32:21;21.40;99.90
24614;DHT22;12760;46.296;25.290;2022-09-09T14:34:47;21.50;99.90
24614;DHT22;12760;46.296;25.290;2022-09-09T14:37:16;21.50;99.90
24614;DHT22;12760;46.296;25.290;2022-09-09T14:39:43;21.50;99.90
24614;DHT22;12760;46.296;25.290;2022-09-09T14:42:10;21.60;99.90
24614;DHT22;12760;46.296;25.290;2022-09-09T14:44:37;21.60;99.90
24614;DHT22;12760;46.296;25.290;2022-09-09T14:47:06;21.60;99.90
24614;DHT22;12760;46.296;25.290;2022-09-09T14:49:35;21.60;99.90
24614;DHT22;12760;46.296;25.290;2022-09-09T14:52:01;21.60;99.90
24614;DHT22;12760;46.296;25.290;2022-09-09T14:54:27;21.60;99.90
24614;DHT22;12760;46.296;25.290;2022-09-09T14:56:53;21.60;99.90
24614;DHT22;12760;46.296;25.290;2022-09-09T14:59:19;21.60;99.90
24614;DHT22;12760;46.296;25.290;2022-09-09T15:01:45;21.60;99.90
24614;DHT22;12760;46.296;25.290;2022-09-09T15:04:12;21.60;99.90
24614;DHT22;12760;46.296;25.290;2022-09-09T15:06:41;21.60;99.90
24614;DHT22;12760;46.296;25.290;2022-09-09T15:09:09;21.50;99.90
24614;DHT22;12760;46.296;25.290;2022-09-09T15:11:36;21.50;99.90
24614;DHT22;12760;46.296;25.290;2022-09-09T15:14:06;21.50;99.90
24614;DHT22;12760;46.296;25.290;2022-09-09T15:16:32;21.50;99.90
24614;DHT22;12760;46.296;25.290;2022-09-09T15:18:59;21.50;99.90
24614;DHT22;12760;46.296;25.290;2022-09-09T15:21:30;21.50;99.90
24614;DHT22;12760;46.296;25.290;2022-09-09T15:23:57;21.50;99.90
24614;DHT22;12760;46.296;25.290;2022-09-09T15:26:23;21.50;99.90
24614;DHT22;12760;46.296;25.290;2022-09-09T15:28:49;21.50;99.90
24614;DHT22;12760;46.296;25.290;2022-09-09T15:31:21;21.50;99.90
24614;DHT22;12760;46.296;25.290;2022-09-09T15:33:52;21.40;99.90
24614;DHT22;12760;46.296;25.290;2022-09-09T15:36:25;21.40;99.90
24614;DHT22;12760;46.296;25.290;2022-09-09T15:38:52;21.40;99.90
24614;DHT22;12760;46.296;25.290;2022-09-09T15:41:19;21.40;99.90
24614;DHT22;12760;46.296;25.290;2022-09-09T15:43:50;21.40;99.90
24614;DHT22;12760;46.296;25.290;2022-09-09T15:48:43;21.40;99.90
24614;DHT22;12760;46.296;25.290;2022-09-09T15:51:10;21.30;99.90
24614;DHT22;12760;46.296;25.290;2022-09-09T15:53:40;21.30;99.90
24614;DHT22;12760;46.296;25.290;2022-09-09T15:56:07;21.30;99.90
24614;DHT22;12760;46.296;25.290;2022-09-09T15:58:33;21.30;99.90
24614;DHT22;12760;46.296;25.290;2022-09-09T16:01:07;21.30;99.90
24614;DHT22;12760;46.296;25.290;2022-09-09T16:03:41;21.30;99.90
24614;DHT22;12760;46.296;25.290;2022-09-09T16:06:08;21.30;99.90
24614;DHT22;12760;46.296;25.290;2022-09-09T16:08:40;21.20;99.90
24614;DHT22;12760;46.296;25.290;2022-09-09T16:11:07;21.20;99.90
24614;DHT22;12760;46.296;25.290;2022-09-09T16:13:39;21.30;99.90
24614;DHT22;12760;46.296;25.290;2022-09-09T16:16:06;21.30;99.90
24614;DHT22;12760;46.296;25.290;2022-09-09T16:18:43;21.20;99.90
24614;DHT22;12760;46.296;25.290;2022-09-09T16:21:35;21.20;99.90
24614;DHT22;12760;46.296;25.290;2022-09-09T16:24:01;21.20;99.90
24614;DHT22;12760;46.296;25.290;2022-09-09T16:26:29;21.10;99.90
24614;DHT22;12760;46.296;25.290;2022-09-09T16:28:55;21.10;99.90
24614;DHT22;12760;46.296;25.290;2022-09-09T16:31:23;21.10;99.90
24614;DHT22;12760;46.296;25.290;2022-09-09T16:33:50;21.10;99.90
24614;DHT22;12760;46.296;25.290;2022-09-09T16:36:18;21.10;99.90
24614;DHT22;12760;46.296;25.290;2022-09-09T16:38:44;21.10;99.90
24614;DHT22;12760;46.296;25.290;2022-09-09T16:41:11;21.00;99.90
24614;DHT22;12760;46.296;25.290;2022-09-09T16:43:38;21.00;99.90
24614;DHT22;12760;46.296;25.290;2022-09-09T16:46:24;21.00;99.90
24614;DHT22;12760;46.296;25.290;2022-09-09T16:48:51;21.00;99.90
24614;DHT22;12760;46.296;25.290;2022-09-09T16:51:23;20.90;99.90
24614;DHT22;12760;46.296;25.290;2022-09-09T16:53:49;20.90;99.90
24614;DHT22;12760;46.296;25.290;2022-09-09T16:56:18;20.80;99.90
24614;DHT22;12760;46.296;25.290;2022-09-09T16:59:07;20.80;99.90
24614;DHT22;12760;46.296;25.290;2022-09-09T17:01:36;20.80;99.90
24614;DHT22;12760;46.296;25.290;2022-09-09T17:04:18;20.90;99.90
24614;DHT22;12760;46.296;25.290;2022-09-09T17:06:50;20.90;99.90
24614;DHT22;12760;46.296;25.290;2022-09-09T17:09:17;20.80;99.90
24614;DHT22;12760;46.296;25.290;2022-09-09T17:11:43;20.80;99.90
24614;DHT22;12760;46.296;25.290;2022-09-09T17:14:13;20.80;99.90
24614;DHT22;12760;46.296;25.290;2022-09-09T17:16:38;20.70;99.90
24614;DHT22;12760;46.296;25.290;2022-09-09T17:19:05;20.70;99.90
24614;DHT22;12760;46.296;25.290;2022-09-09T17:21:33;20.80;99.90
24614;DHT22;12760;46.296;25.290;2022-09-09T17:23:59;20.80;99.90
24614;DHT22;12760;46.296;25.290;2022-09-09T17:26:28;20.80;99.90
24614;DHT22;12760;46.296;25.290;2022-09-09T17:28:55;20.70;99.90
24614;DHT22;12760;46.296;25.290;2022-09-09T17:31:22;20.70;99.90
24614;DHT22;12760;46.296;25.290;2022-09-09T17:33:49;20.60;99.90
24614;DHT22;12760;46.296;25.290;2022-09-09T17:36:18;20.60;99.90
24614;DHT22;12760;46.296;25.290;2022-09-09T17:38:45;20.60;99.90
24614;DHT22;12760;46.296;25.290;2022-09-09T17:41:15;20.60;99.90
24614;DHT22;12760;46.296;25.290;2022-09-09T17:43:41;20.60;99.90
24614;DHT22;12760;46.296;25.290;2022-09-09T17:46:20;20.60;99.90
24614;DHT22;12760;46.296;25.290;2022-09-09T17:48:48;20.60;99.90
24614;DHT22;12760;46.296;25.290;2022-09-09T17:51:17;20.70;99.90